sensor_id;sensor_type;location;lat;lon;timestamp;temperature;humidity
55151;DHT22;41041;43.162;20.538;2023-09-19T01:58:34;512.20;2380.80
55151;DHT22;41041;43.162;20.538;2023-09-19T02:01:01;512.20;2380.80
55151;DHT22;41041;43.162;20.538;2023-09-19T02:03:29;487.20;2380.80
55151;DHT22;41041;43.162;20.538;2023-09-19T02:05:56;487.30;2380.80
55151;DHT22;41041;43.162;20.538;2023-09-19T02:08:22;487.20;2380.80
55151;DHT22;41041;43.162;20.538;2023-09-19T02:10:51;487.20;2380.80
55151;DHT22;41041;43.162;20.538;2023-09-19T02:13:22;487.10;2380.80
55151;DHT22;41041;43.162;20.538;2023-09-19T02:15:52;487.00;2380.80
55151;DHT22;41041;43.162;20.538;2023-09-19T02:18:18;487.00;2380.80
55151;DHT22;41041;43.162;20.538;2023-09-19T02:33:02;512.20;2380.80
55151;DHT22;41041;43.162;20.538;2023-09-19T09:58:26;640.00;2432.00
55151;DHT22;41041;43.162;20.538;2023-09-19T10:00:56;615.30;2432.00
55151;DHT22;41041;43.162;20.538;2023-09-19T10:03:31;615.30;2432.00
55151;DHT22;41041;43.162;20.538;2023-09-19T10:05:57;640.00;2432.00
55151;DHT22;41041;43.162;20.538;2023-09-19T10:08:34;615.30;2432.00
55151;DHT22;41041;43.162;20.538;2023-09-19T14:23:35;665.60;2432.00
55151;DHT22;41041;43.162;20.538;2023-09-19T16:06:44;614.90;2432.00
55151;DHT22;41041;43.162;20.538;2023-09-19T16:09:10;614.60;2432.00
55151;DHT22;41041;43.162;20.538;2023-09-19T16:11:37;614.40;2432.00
55151;DHT22;41041;43.162;20.538;2023-09-19T16:14:03;589.70;2432.00
55151;DHT22;41041;43.162;20.538;2023-09-19T16:53:34;564.10;2432.00
55151;DHT22;41041;43.162;20.538;2023-09-19T16:56:05;563.90;2432.00
55151;DHT22;41041;43.162;20.538;2023-09-19T16:58:35;563.90;2432.00
55151;DHT22;41041;43.162;20.538;2023-09-19T17:01:00;563.60;2432.00
55151;DHT22;41041;43.162;20.538;2023-09-19T17:38:42;563.40;2432.00
55151;DHT22;41041;43.162;20.538;2023-09-19T17:41:08;563.20;2432.00
55151;DHT22;41041;43.162;20.538;2023-09-19T17:43:35;563.20;2432.00
55151;DHT22;41041;43.162;20.538;2023-09-19T17:46:18;538.50;2406.40
55151;DHT22;41041;43.162;20.538;2023-09-19T17:48:51;538.40;2406.40
55151;DHT22;41041;43.162;20.538;2023-09-19T18:45:59;537.70;2406.40
55151;DHT22;41041;43.162;20.538;2023-09-19T18:48:25;512.70;2380.80
55151;DHT22;41041;43.162;20.538;2023-09-19T18:50:51;512.80;2380.80
55151;DHT22;41041;43.162;20.538;2023-09-19T18:56:12;512.80;2380.80
55151;DHT22;41041;43.162;20.538;2023-09-19T18:58:41;512.90;2380.80
55151;DHT22;41041;43.162;20.538;2023-09-19T19:01:09;512.90;2380.80
55151;DHT22;41041;43.162;20.538;2023-09-19T19:03:36;512.90;2380.80
55151;DHT22;41041;43.162;20.538;2023-09-19T19:06:11;512.90;2380.80
55151;DHT22;41041;43.162;20.538;2023-09-19T19:08:41;512.80;2380.80
55151;DHT22;41041;43.162;20.538;2023-09-19T19:11:09;512.70;2380.80
55151;DHT22;41041;43.162;20.538;2023-09-19T19:13:37;512.60;2380.80
55151;DHT22;41041;43.162;20.538;2023-09-19T19:16:03;512.60;2380.80
55151;DHT22;41041;43.162;20.538;2023-09-19T19:18:34;512.60;2380.80
55151;DHT22;41041;43.162;20.538;2023-09-19T19:21:02;512.50;2380.80
55151;DHT22;41041;43.162;20.538;2023-09-19T19:23:30;512.40;2380.80
55151;DHT22;41041;43.162;20.538;2023-09-19T19:25:56;512.60;2380.80
55151;DHT22;41041;43.162;20.538;2023-09-19T19:28:26;512.60;2380.80
55151;DHT22;41041;43.162;20.538;2023-09-19T19:30:53;512.60;2380.80
55151;DHT22;41041;43.162;20.538;2023-09-19T19:33:18;512.40;2380.80
55151;DHT22;41041;43.162;20.538;2023-09-19T19:35:51;512.40;2380.80
55151;DHT22;41041;43.162;20.538;2023-09-19T19:38:16;512.40;2380.80
55151;DHT22;41041;43.162;20.538;2023-09-19T19:40:43;512.60;2380.80
55151;DHT22;41041;43.162;20.538;2023-09-19T19:43:09;512.50;2380.80
55151;DHT22;41041;43.162;20.538;2023-09-19T19:45:35;512.40;2380.80
55151;DHT22;41041;43.162;20.538;2023-09-19T19:48:12;512.40;2380.80
55151;DHT22;41041;43.162;20.538;2023-09-19T19:50:38;512.20;2380.80
55151;DHT22;41041;43.162;20.538;2023-09-19T19:53:04;512.00;2380.80
55151;DHT22;41041;43.162;20.538;2023-09-19T19:55:38;512.00;2380.80
55151;DHT22;41041;43.162;20.538;2023-09-19T19:58:05;512.00;2380.80
55151;DHT22;41041;43.162;20.538;2023-09-19T20:00:32;512.10;2380.80
55151;DHT22;41041;43.162;20.538;2023-09-19T20:03:00;512.20;2380.80
55151;DHT22;41041;43.162;20.538;2023-09-19T20:05:26;512.20;2380.80
55151;DHT22;41041;43.162;20.538;2023-09-19T20:07:52;512.30;2380.80
55151;DHT22;41041;43.162;20.538;2023-09-19T20:10:18;512.10;2380.80
55151;DHT22;41041;43.162;20.538;2023-09-19T20:12:50;512.00;2380.80
55151;DHT22;41041;43.162;20.538;2023-09-19T20:15:17;512.00;2380.80
55151;DHT22;41041;43.162;20.538;2023-09-19T20:17:43;512.20;2380.80
55151;DHT22;41041;43.162;20.538;2023-09-19T20:20:09;512.00;2380.80
55151;DHT22;41041;43.162;20.538;2023-09-19T20:22:44;487.30;2380.80
55151;DHT22;41041;43.162;20.538;2023-09-19T20:25:13;512.00;2380.80
55151;DHT22;41041;43.162;20.538;2023-09-19T20:27:41;487.30;2380.80
55151;DHT22;41041;43.162;20.538;2023-09-19T20:30:10;512.00;2380.80
55151;DHT22;41041;43.162;20.538;2023-09-19T20:32:38;512.10;2380.80
55151;DHT22;41041;43.162;20.538;2023-09-19T20:35:10;512.10;2380.80
55151;DHT22;41041;43.162;20.538;2023-09-19T20:37:40;512.30;2380.80
55151;DHT22;41041;43.162;20.538;2023-09-19T20:40:07;512.40;2380.80
55151;DHT22;41041;43.162;20.538;2023-09-19T20:42:39;512.40;2380.80
55151;DHT22;41041;43.162;20.538;2023-09-19T20:45:08;512.40;2380.80
55151;DHT22;41041;43.162;20.538;2023-09-19T20:48:03;512.30;2380.80
55151;DHT22;41041;43.162;20.538;2023-09-19T20:50:29;512.40;2380.80
55151;DHT22;41041;43.162;20.538;2023-09-19T20:52:55;512.30;2380.80
55151;DHT22;41041;43.162;20.538;2023-09-19T20:55:21;512.30;2380.80
55151;DHT22;41041;43.162;20.538;2023-09-19T20:57:47;512.30;2380.80
55151;DHT22;41041;43.162;20.538;2023-09-19T21:00:13;512.20;2380.80
55151;DHT22;41041;43.162;20.538;2023-09-19T21:02:40;512.20;2380.80
55151;DHT22;41041;43.162;20.538;2023-09-19T21:05:06;512.20;2380.80
55151;DHT22;41041;43.162;20.538;2023-09-19T21:07:35;512.20;2380.80
55151;DHT22;41041;43.162;20.538;2023-09-19T21:10:01;512.30;2380.80
55151;DHT22;41041;43.162;20.538;2023-09-19T21:12:27;512.30;2380.80
55151;DHT22;41041;43.162;20.538;2023-09-19T21:14:58;512.20;2380.80
55151;DHT22;41041;43.162;20.538;2023-09-19T21:17:25;512.20;2380.80
55151;DHT22;41041;43.162;20.538;2023-09-19T21:19:51;512.40;2380.80
55151;DHT22;41041;43.162;20.538;2023-09-19T21:22:17;512.30;2380.80
55151;DHT22;41041;43.162;20.538;2023-09-19T21:24:43;512.30;2380.80
55151;DHT22;41041;43.162;20.538;2023-09-19T21:27:10;512.10;2380.80
55151;DHT22;41041;43.162;20.538;2023-09-19T21:29:38;512.20;2380.80
55151;DHT22;41041;43.162;20.538;2023-09-19T21:32:04;512.30;2380.80
55151;DHT22;41041;43.162;20.538;2023-09-19T21:34:41;512.10;2380.80
55151;DHT22;41041;43.162;20.538;2023-09-19T21:37:07;512.20;2380.80
55151;DHT22;41041;43.162;20.538;2023-09-19T21:39:33;512.30;2380.80
55151;DHT22;41041;43.162;20.538;2023-09-19T21:42:02;512.20;2380.80
55151;DHT22;41041;43.162;20.538;2023-09-19T21:44:29;512.10;2380.80
55151;DHT22;41041;43.162;20.538;2023-09-19T21:46:55;512.00;2380.80
55151;DHT22;41041;43.162;20.538;2023-09-19T21:49:36;487.20;2380.80
55151;DHT22;41041;43.162;20.538;2023-09-19T21:52:04;487.20;2380.80
55151;DHT22;41041;43.162;20.538;2023-09-19T21:54:30;487.20;2380.80
55151;DHT22;41041;43.162;20.538;2023-09-19T21:56:56;487.20;2380.80
55151;DHT22;41041;43.162;20.538;2023-09-19T21:59:45;487.30;2380.80
55151;DHT22;41041;43.162;20.538;2023-09-19T22:02:12;487.20;2380.80
55151;DHT22;41041;43.162;20.538;2023-09-19T22:04:38;487.30;2380.80
55151;DHT22;41041;43.162;20.538;2023-09-19T22:07:06;487.10;2380.80
55151;DHT22;41041;43.162;20.538;2023-09-19T22:09:32;487.20;2380.80
55151;DHT22;41041;43.162;20.538;2023-09-19T22:11:58;487.10;2380.80
55151;DHT22;41041;43.162;20.538;2023-09-19T22:14:25;487.10;2380.80
55151;DHT22;41041;43.162;20.538;2023-09-19T22:16:58;487.20;2380.80
55151;DHT22;41041;43.162;20.538;2023-09-19T22:19:40;487.20;2380.80
55151;DHT22;41041;43.162;20.538;2023-09-19T22:22:09;487.20;2380.80
55151;DHT22;41041;43.162;20.538;2023-09-19T22:24:37;487.20;2380.80
55151;DHT22;41041;43.162;20.538;2023-09-19T22:27:08;487.20;2380.80
55151;DHT22;41041;43.162;20.538;2023-09-19T22:29:37;487.00;2380.80
55151;DHT22;41041;43.162;20.538;2023-09-19T22:32:05;487.20;2380.80
55151;DHT22;41041;43.162;20.538;2023-09-19T22:34:32;487.20;2380.80
55151;DHT22;41041;43.162;20.538;2023-09-19T22:37:00;487.20;2380.80
55151;DHT22;41041;43.162;20.538;2023-09-19T22:39:42;487.30;2380.80
55151;DHT22;41041;43.162;20.538;2023-09-19T22:42:07;512.00;2380.80
55151;DHT22;41041;43.162;20.538;2023-09-19T22:44:37;487.30;2380.80
55151;DHT22;41041;43.162;20.538;2023-09-19T22:47:03;487.20;2380.80
55151;DHT22;41041;43.162;20.538;2023-09-19T22:49:30;487.20;2380.80
55151;DHT22;41041;43.162;20.538;2023-09-19T22:52:19;487.20;2380.80
55151;DHT22;41041;43.162;20.538;2023-09-19T22:54:46;487.20;2380.80
55151;DHT22;41041;43.162;20.538;2023-09-19T22:57:13;487.10;2380.80
55151;DHT22;41041;43.162;20.538;2023-09-19T22:59:41;487.10;2380.80
55151;DHT22;41041;43.162;20.538;2023-09-19T23:07:03;512.00;2380.80
55151;DHT22;41041;43.162;20.538;2023-09-19T23:09:31;487.10;2380.80
55151;DHT22;41041;43.162;20.538;2023-09-19T23:12:01;487.10;2380.80
55151;DHT22;41041;43.162;20.538;2023-09-19T23:14:29;487.00;2380.80
